createdAt,value
2022-12-19T00:01:58.082Z,100.00
2022-12-19T00:04:26.143Z,100.00
2022-12-19T00:06:54.076Z,100.00
2022-12-19T00:09:23.420Z,100.00
2022-12-19T00:11:51.147Z,100.00
2022-12-19T00:14:18.851Z,100.00
2022-12-19T00:16:47.635Z,100.00
2022-12-19T00:19:15.962Z,100.00
2022-12-19T00:21:43.706Z,100.00
2022-12-19T00:24:21.196Z,100.00
2022-12-19T00:26:50.937Z,100.00
2022-12-19T00:29:18.840Z,100.00
2022-12-19T00:31:46.956Z,100.00
2022-12-19T00:34:16.003Z,100.00
2022-12-19T00:36:43.970Z,100.00
2022-12-19T00:39:11.825Z,100.00
2022-12-19T00:41:42.159Z,100.00
2022-12-19T00:44:13.932Z,100.00
2022-12-19T00:46:42.533Z,100.00
2022-12-19T00:49:13.929Z,100.00
2022-12-19T00:51:41.639Z,100.00
2022-12-19T00:54:11.458Z,100.00
2022-12-19T00:56:39.859Z,100.00
2022-12-19T00:59:08.797Z,100.00
2022-12-19T01:01:41.172Z,100.00
2022-12-19T01:04:30.373Z,100.00
2022-12-19T01:07:02.607Z,100.00
2022-12-19T01:09:34.978Z,100.00
2022-12-19T01:12:23.995Z,100.00
2022-12-19T01:14:54.647Z,100.00
2022-12-19T01:17:26.890Z,100.00
2022-12-19T01:19:54.684Z,100.00
2022-12-19T01:22:22.388Z,100.00
2022-12-19T01:24:50.127Z,100.00
2022-12-19T01:27:17.962Z,100.00
2022-12-19T01:29:52.441Z,100.00
2022-12-19T01:32:21.675Z,100.00
2022-12-19T01:34:50.736Z,100.00
2022-12-19T01:37:18.967Z,100.00
2022-12-19T01:39:47.215Z,100.00
2022-12-19T01:42:20.248Z,100.00
2022-12-19T01:45:33.150Z,100.00
2022-12-19T01:48:20.192Z,100.00
2022-12-19T01:51:00.541Z,100.00
2022-12-19T01:53:35.486Z,100.00
2022-12-19T01:56:10.784Z,100.00
2022-12-19T01:58:42.364Z,100.00
2022-12-19T02:01:10.317Z,100.00
2022-12-19T02:03:39.593Z,100.00
2022-12-19T02:06:17.697Z,100.00
2022-12-19T02:08:48.424Z,100.00
2022-12-19T02:11:16.237Z,100.00
2022-12-19T02:13:44.843Z,100.00
2022-12-19T02:16:25.183Z,100.00
2022-12-19T02:19:18.207Z,100.00
2022-12-19T02:21:55.065Z,100.00
2022-12-19T02:25:01.971Z,100.00
2022-12-19T02:28:04.375Z,100.00
2022-12-19T02:30:46.253Z,100.00
2022-12-19T02:33:18.931Z,100.00
2022-12-19T02:35:57.339Z,100.00
2022-12-19T02:38:32.882Z,100.00
2022-12-19T02:41:06.810Z,100.00
2022-12-19T02:43:39.973Z,100.00
2022-12-19T02:46:12.251Z,100.00
2022-12-19T02:48:42.168Z,100.00
2022-12-19T02:51:10.485Z,100.00
2022-12-19T02:53:40.267Z,100.00
2022-12-19T02:56:23.091Z,100.00
2022-12-19T02:59:04.688Z,100.00
2022-12-19T03:01:45.435Z,100.00
2022-12-19T03:04:22.119Z,100.00
2022-12-19T03:06:55.765Z,100.00
2022-12-19T03:09:33.305Z,100.00
2022-12-19T03:12:08.619Z,100.00
2022-12-19T03:14:38.386Z,100.00
2022-12-19T03:17:08.676Z,100.00
2022-12-19T03:19:39.604Z,100.00
2022-12-19T03:22:08.442Z,100.00
2022-12-19T03:24:36.264Z,100.00
2022-12-19T03:27:12.097Z,100.00
2022-12-19T03:29:42.223Z,100.00
2022-12-19T03:32:14.854Z,100.00
2022-12-19T03:34:48.207Z,100.00
2022-12-19T03:37:20.917Z,100.00
2022-12-19T03:39:53.597Z,100.00
2022-12-19T03:42:43.750Z,100.00
2022-12-19T03:45:14.573Z,100.00
2022-12-19T03:47:50.277Z,100.00
2022-12-19T03:50:19.776Z,100.00
2022-12-19T03:52:53.651Z,100.00
2022-12-19T03:55:28.487Z,100.00
2022-12-19T03:58:03.856Z,100.00
2022-12-19T04:00:35.422Z,100.00
2022-12-19T04:03:06.302Z,100.00
2022-12-19T04:05:35.647Z,100.00
2022-12-19T04:08:07.653Z,100.00
2022-12-19T04:10:40.696Z,100.00
2022-12-19T04:13:12.260Z,100.00
2022-12-19T04:15:50.454Z,100.00
2022-12-19T04:18:21.041Z,100.00
2022-12-19T04:20:56.083Z,100.00
2022-12-19T04:23:29.605Z,100.00
2022-12-19T04:26:02.991Z,100.00
2022-12-19T04:28:35.910Z,100.00
2022-12-19T04:31:04.359Z,100.00
2022-12-19T04:33:33.568Z,100.00
2022-12-19T04:36:01.394Z,100.00
2022-12-19T04:38:29.155Z,100.00
2022-12-19T04:40:56.920Z,100.00
2022-12-19T04:43:24.894Z,100.00
2022-12-19T04:45:57.112Z,100.00
2022-12-19T04:48:25.659Z,100.00
2022-12-19T04:50:54.851Z,100.00
2022-12-19T04:53:22.598Z,100.00
2022-12-19T04:55:50.278Z,100.00
2022-12-19T04:58:21.814Z,100.00
2022-12-19T05:00:49.965Z,100.00
2022-12-19T05:03:17.765Z,100.00
2022-12-19T05:05:45.520Z,100.00
2022-12-19T05:08:14.687Z,100.00
2022-12-19T05:10:42.384Z,100.00
2022-12-19T05:13:10.445Z,100.00
2022-12-19T05:15:38.263Z,100.00
2022-12-19T05:18:06.092Z,100.00
2022-12-19T05:20:33.786Z,100.00
2022-12-19T05:23:05.019Z,100.00
2022-12-19T05:25:39.165Z,100.00
2022-12-19T05:28:06.926Z,100.00
2022-12-19T05:30:34.718Z,100.00
2022-12-19T05:33:02.466Z,100.00
2022-12-19T05:35:30.263Z,100.00
2022-12-19T05:37:58.002Z,100.00
2022-12-19T05:40:25.744Z,100.00
2022-12-19T05:42:55.115Z,100.00
2022-12-19T05:45:23.137Z,100.00
2022-12-19T05:47:50.948Z,100.00
2022-12-19T05:50:19.176Z,100.00
2022-12-19T05:52:52.502Z,100.00
2022-12-19T05:55:20.669Z,100.00
2022-12-19T05:57:48.411Z,100.00
2022-12-19T06:00:18.225Z,100.00
2022-12-19T06:02:46.053Z,100.00
2022-12-19T06:05:14.139Z,100.00
2022-12-19T06:07:41.831Z,100.00
2022-12-19T06:10:09.805Z,100.00
2022-12-19T06:12:37.565Z,100.00
2022-12-19T06:15:05.856Z,100.00
2022-12-19T06:17:34.962Z,100.00
2022-12-19T06:20:02.666Z,100.00
2022-12-19T06:22:30.411Z,100.00
2022-12-19T06:24:58.108Z,100.00
2022-12-19T06:27:25.875Z,100.00
2022-12-19T06:29:53.632Z,100.00
2022-12-19T06:32:21.361Z,100.00
2022-12-19T06:35:05.855Z,100.00
2022-12-19T06:37:33.604Z,100.00
2022-12-19T06:40:01.319Z,100.00
2022-12-19T06:42:28.141Z,100.00
2022-12-19T06:44:57.024Z,100.00
2022-12-19T06:47:25.753Z,100.00
2022-12-19T06:49:55.042Z,100.00
2022-12-19T06:52:22.758Z,100.00
2022-12-19T06:54:50.449Z,100.00
2022-12-19T06:57:18.194Z,100.00
2022-12-19T06:59:45.894Z,100.00
2022-12-19T07:02:28.272Z,100.00
2022-12-19T07:05:02.106Z,100.00
2022-12-19T07:07:30.136Z,100.00
2022-12-19T07:09:57.848Z,100.00
2022-12-19T07:12:25.591Z,100.00
2022-12-19T07:14:53.902Z,100.00
2022-12-19T07:17:23.367Z,100.00
2022-12-19T07:19:54.408Z,100.00
2022-12-19T07:22:24.779Z,100.00
2022-12-19T07:24:52.645Z,100.00
2022-12-19T07:27:20.389Z,100.00
2022-12-19T07:29:48.360Z,100.00
2022-12-19T07:32:16.096Z,100.00
2022-12-19T07:34:43.937Z,100.00
2022-12-19T07:37:11.823Z,100.00
2022-12-19T07:39:40.927Z,100.00
2022-12-19T07:42:08.636Z,100.00
2022-12-19T07:44:39.744Z,100.00
2022-12-19T07:47:10.369Z,100.00
2022-12-19T07:49:38.147Z,100.00
2022-12-19T07:52:06.038Z,100.00
2022-12-19T07:54:35.001Z,100.00
2022-12-19T07:57:05.064Z,100.00
2022-12-19T07:59:37.388Z,100.00
2022-12-19T08:02:07.281Z,100.00
2022-12-19T08:04:35.834Z,100.00
2022-12-19T08:07:03.832Z,100.00
2022-12-19T08:09:31.765Z,100.00
2022-12-19T08:11:59.949Z,100.00
2022-12-19T08:14:29.205Z,100.00
2022-12-19T08:17:19.885Z,100.00
2022-12-19T08:19:44.617Z,100.00
2022-12-19T08:22:12.332Z,100.00
2022-12-19T08:24:40.332Z,100.00
2022-12-19T08:27:08.329Z,100.00
2022-12-19T08:29:37.383Z,100.00
2022-12-19T08:32:05.583Z,100.00
2022-12-19T08:34:33.550Z,100.00
2022-12-19T08:37:01.301Z,100.00
2022-12-19T08:39:29.119Z,100.00
2022-12-19T08:41:57.156Z,100.00
2022-12-19T08:44:25.165Z,100.00
2022-12-19T08:46:54.311Z,100.00
2022-12-19T08:49:22.540Z,100.00
2022-12-19T08:51:50.625Z,100.00
2022-12-19T08:54:18.577Z,100.00
2022-12-19T08:56:47.236Z,100.00
2022-12-19T08:59:18.729Z,100.00
2022-12-19T09:01:54.108Z,100.00
2022-12-19T09:05:18.793Z,100.00
2022-12-19T09:07:10.038Z,100.00
2022-12-19T09:09:37.695Z,100.00
2022-12-19T09:12:05.524Z,100.00
2022-12-19T09:14:34.837Z,100.00
2022-12-19T09:17:04.871Z,100.00
2022-12-19T09:19:32.774Z,100.00
2022-12-19T09:22:01.061Z,100.00
2022-12-19T09:24:28.962Z,100.00
2022-12-19T09:26:56.677Z,100.00
2022-12-19T09:29:24.401Z,100.00
2022-12-19T09:31:56.350Z,100.00
2022-12-19T09:34:38.667Z,100.00
2022-12-19T09:37:08.418Z,100.00
2022-12-19T09:39:36.966Z,100.00
2022-12-19T09:42:21.445Z,100.00
2022-12-19T09:45:05.396Z,100.00
2022-12-19T09:47:34.897Z,100.00
2022-12-19T09:50:14.334Z,100.00
2022-12-19T09:52:48.097Z,100.00
2022-12-19T09:55:20.881Z,100.00
2022-12-19T09:57:57.094Z,100.00
2022-12-19T10:00:34.830Z,100.00
2022-12-19T10:03:08.501Z,100.00
2022-12-19T10:06:59.835Z,100.00
2022-12-19T10:08:35.034Z,100.00
2022-12-19T10:12:38.707Z,100.00
2022-12-19T10:14:20.081Z,100.00
2022-12-19T10:17:23.146Z,100.00
2022-12-19T10:20:00.181Z,100.00
2022-12-19T10:22:39.123Z,100.00
2022-12-19T10:25:24.469Z,100.00
2022-12-19T10:27:59.226Z,100.00
2022-12-19T10:30:31.826Z,100.00
2022-12-19T10:33:09.790Z,100.00
2022-12-19T10:35:44.134Z,100.00
2022-12-19T10:38:23.185Z,100.00
2022-12-19T10:40:55.001Z,100.00
2022-12-19T10:43:35.660Z,100.00
2022-12-19T10:46:17.941Z,100.00
2022-12-19T10:48:45.795Z,100.00
2022-12-19T10:51:14.657Z,100.00
2022-12-19T10:53:56.948Z,100.00
2022-12-19T10:56:33.186Z,100.00
2022-12-19T10:59:07.045Z,100.00
2022-12-19T11:01:39.331Z,100.00
2022-12-19T11:04:26.691Z,100.00
2022-12-19T11:07:07.538Z,100.00
2022-12-19T11:09:40.172Z,100.00
2022-12-19T11:18:07.844Z,100.00
2022-12-19T11:21:44.219Z,100.00
2022-12-19T11:28:36.688Z,100.00
2022-12-19T11:29:33.019Z,100.00
2022-12-19T11:29:34.919Z,100.00
2022-12-19T11:30:37.374Z,100.00
2022-12-19T11:32:43.056Z,100.00
2022-12-19T11:35:24.844Z,100.00
2022-12-19T11:37:57.186Z,100.00
2022-12-19T11:40:33.868Z,100.00
2022-12-19T11:43:43.309Z,100.00
2022-12-19T11:46:03.890Z,100.00
2022-12-19T11:48:39.715Z,100.00
2022-12-19T11:51:17.051Z,100.00
2022-12-19T11:53:54.109Z,100.00
2022-12-19T11:56:24.731Z,100.00
2022-12-19T11:58:58.959Z,100.00
2022-12-19T12:01:44.757Z,100.00
2022-12-19T12:04:35.997Z,100.00
2022-12-19T12:07:15.489Z,100.00
2022-12-19T12:16:09.397Z,100.00
2022-12-19T12:21:22.192Z,100.00
2022-12-19T12:30:04.651Z,100.00
2022-12-19T12:31:04.352Z,100.00
2022-12-19T12:31:49.209Z,100.00
2022-12-19T12:31:53.070Z,100.00
2022-12-19T12:31:55.325Z,100.00
2022-12-19T12:32:06.757Z,100.00
2022-12-19T12:35:32.683Z,100.00
2022-12-19T12:39:51.283Z,100.00
2022-12-19T12:42:31.054Z,100.00
2022-12-19T12:45:01.357Z,100.00
2022-12-19T12:47:30.195Z,100.00
2022-12-19T12:50:02.932Z,100.00
2022-12-19T12:52:34.942Z,100.00
2022-12-19T12:55:04.659Z,100.00
2022-12-19T12:57:37.620Z,100.00
2022-12-19T13:00:21.357Z,100.00
2022-12-19T13:02:53.800Z,100.00
2022-12-19T13:05:35.648Z,100.00
2022-12-19T13:08:23.779Z,100.00
2022-12-19T13:10:57.317Z,100.00
2022-12-19T13:13:50.659Z,100.00
2022-12-19T13:16:48.202Z,100.00
2022-12-19T13:19:24.138Z,100.00
2022-12-19T13:22:21.487Z,100.00
2022-12-19T13:24:51.730Z,100.00
2022-12-19T13:27:49.083Z,100.00
2022-12-19T13:30:19.760Z,100.00
2022-12-19T13:33:10.917Z,100.00
2022-12-19T13:39:44.293Z,100.00
2022-12-19T13:40:00.504Z,100.00
2022-12-19T13:41:45.002Z,100.00
2022-12-19T13:44:14.508Z,100.00
2022-12-19T13:46:43.770Z,100.00
2022-12-19T13:49:15.817Z,100.00
2022-12-19T13:51:47.762Z,100.00
2022-12-19T13:54:22.926Z,100.00
2022-12-19T13:56:51.839Z,100.00
2022-12-19T13:59:22.430Z,100.00
2022-12-19T14:01:52.836Z,100.00
2022-12-19T14:04:28.293Z,100.00
2022-12-19T14:07:01.497Z,100.00
2022-12-19T14:11:27.866Z,100.00
2022-12-19T14:13:51.240Z,100.00
2022-12-19T14:15:35.308Z,100.00
2022-12-19T14:18:21.829Z,100.00
2022-12-19T14:22:03.527Z,100.00
2022-12-19T14:23:43.424Z,100.00
2022-12-19T14:28:25.226Z,100.00
2022-12-19T14:29:09.750Z,100.00
2022-12-19T14:31:58.412Z,100.00
2022-12-19T14:35:12.878Z,100.00
2022-12-19T14:37:31.613Z,100.00
2022-12-19T14:40:25.283Z,100.00
2022-12-19T14:43:56.433Z,100.00
2022-12-19T14:54:05.763Z,100.00
2022-12-19T14:54:13.169Z,100.00
2022-12-19T14:54:40.046Z,100.00
2022-12-19T14:58:51.160Z,100.00
2022-12-19T15:01:07.034Z,100.00
2022-12-19T15:03:22.834Z,100.00
2022-12-19T15:05:53.309Z,100.00
2022-12-19T15:09:01.330Z,100.00
2022-12-19T15:11:55.556Z,100.00
2022-12-19T15:14:50.794Z,100.00
2022-12-19T15:17:24.061Z,100.00
2022-12-19T15:19:52.618Z,100.00
2022-12-19T15:22:21.706Z,100.00
2022-12-19T15:24:49.542Z,100.00
2022-12-19T15:27:18.350Z,100.00
2022-12-19T15:29:46.200Z,100.00
2022-12-19T15:32:15.713Z,100.00
2022-12-19T15:34:50.511Z,100.00
2022-12-19T15:37:18.614Z,100.00
2022-12-19T15:39:48.078Z,100.00
2022-12-19T15:42:19.915Z,100.00
2022-12-19T15:44:49.207Z,100.00
2022-12-19T15:47:19.737Z,100.00
2022-12-19T15:49:47.651Z,100.00
2022-12-19T15:52:18.286Z,100.00
2022-12-19T15:54:49.679Z,100.00
2022-12-19T15:57:28.236Z,100.00
2022-12-19T15:59:58.790Z,100.00
2022-12-19T16:02:56.291Z,100.00
2022-12-19T16:05:17.010Z,100.00
2022-12-19T16:07:44.865Z,100.00
2022-12-19T16:10:14.744Z,100.00
2022-12-19T16:12:44.994Z,100.00
2022-12-19T16:15:22.996Z,100.00
2022-12-19T16:17:50.706Z,100.00
2022-12-19T16:20:21.748Z,100.00
2022-12-19T16:22:49.462Z,100.00
2022-12-19T16:25:18.795Z,100.00
2022-12-19T16:27:56.709Z,100.00
2022-12-19T16:30:27.067Z,100.00
2022-12-19T16:32:55.384Z,100.00
2022-12-19T16:35:54.927Z,100.00
2022-12-19T16:38:13.338Z,100.00
2022-12-19T16:40:42.980Z,100.00
2022-12-19T16:43:16.905Z,100.00
2022-12-19T16:45:45.554Z,100.00
2022-12-19T16:48:20.255Z,100.00
2022-12-19T16:50:48.051Z,100.00
2022-12-19T16:53:16.408Z,100.00
2022-12-19T16:55:47.779Z,100.00
2022-12-19T16:58:19.862Z,100.00
2022-12-19T17:00:48.494Z,100.00
2022-12-19T17:03:29.327Z,100.00
2022-12-19T17:05:57.498Z,100.00
2022-12-19T17:08:25.344Z,100.00
2022-12-19T17:10:55.671Z,100.00
2022-12-19T17:13:24.613Z,100.00
2022-12-19T17:15:56.683Z,100.00
2022-12-19T17:18:29.599Z,100.00
2022-12-19T17:20:57.930Z,100.00
2022-12-19T17:23:28.941Z,100.00
2022-12-19T17:25:59.380Z,100.00
2022-12-19T17:28:27.991Z,100.00
2022-12-19T17:30:58.256Z,100.00
2022-12-19T17:33:29.773Z,100.00
2022-12-19T17:35:57.567Z,100.00
2022-12-19T17:38:27.204Z,100.00
2022-12-19T17:40:55.433Z,100.00
2022-12-19T17:43:24.521Z,100.00
2022-12-19T17:45:53.151Z,100.00
2022-12-19T17:48:27.335Z,100.00
2022-12-19T17:50:55.953Z,100.00
2022-12-19T17:53:24.432Z,100.00
2022-12-19T17:55:52.718Z,100.00
2022-12-19T17:58:21.557Z,100.00
2022-12-19T18:00:51.966Z,100.00
2022-12-19T18:03:23.620Z,100.00
2022-12-19T18:05:53.134Z,100.00
2022-12-19T18:08:27.336Z,100.00
2022-12-19T18:10:56.549Z,100.00
2022-12-19T18:13:25.394Z,100.00
2022-12-19T18:15:58.389Z,100.00
2022-12-19T18:18:29.247Z,100.00
2022-12-19T18:20:57.753Z,100.00
2022-12-19T18:23:25.695Z,100.00
2022-12-19T18:26:00.876Z,100.00
2022-12-19T18:28:29.150Z,100.00
2022-12-19T18:31:01.304Z,100.00
2022-12-19T18:33:32.961Z,100.00
2022-12-19T18:36:00.762Z,100.00
2022-12-19T18:38:28.462Z,100.00
2022-12-19T18:40:56.412Z,100.00
2022-12-19T18:43:24.265Z,100.00
2022-12-19T18:45:53.354Z,100.00
2022-12-19T18:48:27.603Z,100.00
2022-12-19T18:50:56.471Z,100.00
2022-12-19T18:53:34.535Z,100.00
2022-12-19T18:56:04.305Z,100.00
2022-12-19T18:58:32.440Z,100.00
2022-12-19T19:01:01.685Z,100.00
2022-12-19T19:03:33.545Z,100.00
2022-12-19T19:06:01.460Z,100.00
2022-12-19T19:08:31.347Z,100.00
2022-12-19T19:11:07.980Z,100.00
2022-12-19T19:13:35.780Z,100.00
2022-12-19T19:16:13.247Z,100.00
2022-12-19T19:18:43.205Z,100.00
2022-12-19T19:21:14.312Z,100.00
2022-12-19T19:23:47.065Z,100.00
2022-12-19T19:26:14.808Z,100.00
2022-12-19T19:28:47.023Z,100.00
2022-12-19T19:31:20.014Z,100.00
2022-12-19T19:33:52.786Z,100.00
2022-12-19T19:36:26.725Z,100.00
2022-12-19T19:38:56.853Z,100.00
2022-12-19T19:41:29.404Z,100.00
2022-12-19T19:43:57.128Z,100.00
2022-12-19T19:46:25.316Z,100.00
2022-12-19T19:48:55.016Z,100.00
2022-12-19T19:51:22.725Z,100.00
2022-12-19T19:53:52.057Z,100.00
2022-12-19T19:56:19.903Z,100.00
2022-12-19T19:58:47.571Z,100.00
2022-12-19T20:01:15.783Z,100.00
2022-12-19T20:03:44.865Z,100.00
2022-12-19T20:06:14.811Z,100.00
2022-12-19T20:08:42.656Z,100.00
2022-12-19T20:11:10.974Z,100.00
2022-12-19T20:13:39.347Z,100.00
2022-12-19T20:16:09.939Z,100.00
2022-12-19T20:18:39.081Z,100.00
2022-12-19T20:21:13.137Z,100.00
2022-12-19T20:23:43.853Z,100.00
2022-12-19T20:26:13.424Z,100.00
2022-12-19T20:28:48.479Z,100.00
2022-12-19T20:31:17.060Z,100.00
2022-12-19T20:33:46.135Z,100.00
2022-12-19T20:36:15.243Z,100.00
2022-12-19T20:38:44.618Z,100.00
2022-12-19T20:41:12.498Z,100.00
2022-12-19T20:43:41.257Z,100.00
2022-12-19T20:46:11.882Z,100.00
2022-12-19T20:48:40.303Z,100.00
2022-12-19T20:51:08.617Z,100.00
2022-12-19T20:53:37.709Z,100.00
2022-12-19T20:56:09.076Z,100.00
2022-12-19T20:58:38.671Z,100.00
2022-12-19T21:01:09.360Z,100.00
2022-12-19T21:03:38.456Z,100.00
2022-12-19T21:06:07.852Z,100.00
2022-12-19T21:08:36.529Z,100.00
2022-12-19T21:11:08.062Z,100.00
2022-12-19T21:13:36.880Z,100.00
2022-12-19T21:16:08.549Z,100.00
2022-12-19T21:18:37.077Z,100.00
2022-12-19T21:21:05.244Z,100.00
2022-12-19T21:23:33.543Z,100.00
2022-12-19T21:26:03.287Z,100.00
2022-12-19T21:28:33.211Z,100.00
2022-12-19T21:31:03.374Z,100.00
2022-12-19T21:33:31.782Z,100.00
2022-12-19T21:36:06.701Z,100.00
2022-12-19T21:38:34.748Z,100.00
2022-12-19T21:41:04.613Z,100.00
2022-12-19T21:43:34.856Z,100.00
2022-12-19T21:46:09.626Z,100.00
2022-12-19T21:48:39.262Z,100.00
2022-12-19T21:51:07.926Z,100.00
2022-12-19T21:53:36.547Z,100.00
2022-12-19T21:56:06.179Z,100.00
2022-12-19T21:58:35.985Z,100.00
2022-12-19T22:01:08.630Z,100.00
2022-12-19T22:03:36.952Z,100.00
2022-12-19T22:06:05.749Z,100.00
2022-12-19T22:08:33.696Z,100.00
2022-12-19T22:11:01.994Z,100.00
2022-12-19T22:13:30.701Z,100.00
2022-12-19T22:16:04.251Z,100.00
2022-12-19T22:18:34.966Z,100.00
2022-12-19T22:21:03.447Z,100.00
2022-12-19T22:23:32.002Z,100.00
2022-12-19T22:26:08.423Z,100.00
2022-12-19T22:28:37.712Z,100.00
2022-12-19T22:31:16.632Z,100.00
2022-12-19T22:33:44.549Z,100.00
2022-12-19T22:36:15.348Z,100.00
2022-12-19T22:38:46.070Z,100.00
2022-12-19T22:41:14.565Z,100.00
2022-12-19T22:43:43.067Z,100.00
2022-12-19T22:46:13.784Z,100.00
2022-12-19T22:48:42.803Z,100.00
2022-12-19T22:51:11.297Z,100.00
2022-12-19T22:53:40.187Z,100.00
2022-12-19T22:56:12.389Z,99.99
2022-12-19T22:58:42.321Z,100.00
2022-12-19T23:01:16.321Z,98.99
2022-12-19T23:03:44.620Z,98.75
2022-12-19T23:06:13.457Z,98.07
2022-12-19T23:08:41.315Z,96.63
2022-12-19T23:11:10.926Z,95.58
2022-12-19T23:13:39.218Z,94.85
2022-12-19T23:16:08.210Z,95.29
2022-12-19T23:18:37.956Z,93.97
2022-12-19T23:21:09.433Z,94.72
2022-12-19T23:23:39.933Z,94.11
2022-12-19T23:26:15.184Z,94.31
2022-12-19T23:28:44.226Z,94.13
2022-12-19T23:31:14.454Z,94.25
2022-12-19T23:33:43.646Z,94.69
2022-12-19T23:36:11.707Z,95.06
2022-12-19T23:38:40.717Z,94.71
2022-12-19T23:41:10.818Z,94.50
2022-12-19T23:43:39.533Z,93.92
2022-12-19T23:46:08.489Z,94.74
2022-12-19T23:48:36.570Z,95.39
2022-12-19T23:51:07.909Z,95.11
2022-12-19T23:53:36.464Z,95.41
2022-12-19T23:56:06.932Z,95.03
2022-12-19T23:58:35.190Z,95.32
